createdAt,value
2022-10-21T00:00:25.788Z,96966.53
2022-10-21T00:02:28.400Z,96970.72
2022-10-21T00:04:31.036Z,96974.13
2022-10-21T00:06:35.029Z,96983.50
2022-10-21T00:08:39.125Z,96973.94
2022-10-21T00:10:41.899Z,96984.41
2022-10-21T00:12:44.494Z,96993.16
2022-10-21T00:14:53.602Z,96988.81
2022-10-21T00:16:59.949Z,96985.38
2022-10-21T00:19:02.567Z,96984.50
2022-10-21T00:21:10.674Z,96975.78
2022-10-21T00:23:14.589Z,96971.41
2022-10-21T00:25:17.422Z,96955.66
2022-10-21T00:27:20.069Z,96956.41
2022-10-21T00:29:22.763Z,96954.66
2022-10-21T00:31:26.162Z,96957.94
2022-10-21T00:33:29.473Z,96957.09
2022-10-21T00:35:34.618Z,96958.66
2022-10-21T00:37:37.552Z,96959.53
2022-10-21T00:39:42.029Z,96962.06
2022-10-21T00:41:44.600Z,96977.78
2022-10-21T00:43:59.224Z,96983.22
2022-10-21T00:46:06.478Z,96993.81
2022-10-21T00:48:15.904Z,96999.44
2022-10-21T00:50:27.070Z,97005.25
2022-10-21T00:52:32.072Z,96990.56
2022-10-21T00:54:36.525Z,96973.13
2022-10-21T00:56:45.145Z,96977.59
2022-10-21T00:58:49.258Z,96972.53
2022-10-21T01:00:55.623Z,96963.09
2022-10-21T01:02:59.002Z,96956.13
2022-10-21T01:05:04.109Z,96953.31
2022-10-21T01:07:06.824Z,96957.84
2022-10-21T01:09:09.651Z,96960.47
2022-10-21T01:11:15.376Z,96958.75
2022-10-21T01:13:26.787Z,96947.34
2022-10-21T01:15:37.536Z,96949.25
2022-10-21T01:17:50.109Z,96960.09
2022-10-21T01:20:26.860Z,96956.81
2022-10-21T01:22:47.377Z,96958.56
2022-10-21T01:25:04.341Z,96961.94
2022-10-21T01:27:18.826Z,96957.47
2022-10-21T01:29:43.347Z,96951.38
2022-10-21T01:31:55.738Z,96948.75
2022-10-21T01:34:04.399Z,96940.16
2022-10-21T01:36:20.682Z,96942.78
2022-10-21T01:38:29.382Z,96940.97
2022-10-21T01:40:37.191Z,96940.97
2022-10-21T01:42:44.353Z,96937.53
2022-10-21T01:44:54.307Z,96934.97
2022-10-21T01:47:02.247Z,96939.28
2022-10-21T01:49:12.237Z,96933.38
2022-10-21T01:51:17.770Z,96942.09
2022-10-21T01:53:24.902Z,96946.13
2022-10-21T01:55:31.870Z,96956.91
2022-10-21T01:57:38.786Z,96952.84
2022-10-21T01:59:43.597Z,96965.16
2022-10-21T02:01:48.384Z,96957.94
2022-10-21T02:03:57.114Z,96951.84
2022-10-21T02:06:00.234Z,96940.06
2022-10-21T02:08:03.185Z,96935.72
2022-10-21T02:10:06.514Z,96931.31
2022-10-21T02:12:10.495Z,96927.75
2022-10-21T02:14:17.500Z,96926.84
2022-10-21T02:16:25.040Z,96920.06
2022-10-21T02:18:28.675Z,96920.16
2022-10-21T02:20:36.216Z,96906.28
2022-10-21T02:22:41.150Z,96903.56
2022-10-21T02:24:51.175Z,96911.44
2022-10-21T02:26:54.170Z,96915.13
2022-10-21T02:28:59.444Z,96905.47
2022-10-21T02:31:15.485Z,96901.16
2022-10-21T02:33:23.728Z,96902.09
2022-10-21T02:35:37.704Z,96893.38
2022-10-21T02:37:44.252Z,96886.50
2022-10-21T02:39:52.787Z,96886.59
2022-10-21T02:41:57.365Z,96881.38
2022-10-21T02:44:02.459Z,96882.97
2022-10-21T02:46:08.911Z,96880.81
2022-10-21T02:48:11.585Z,96883.44
2022-10-21T02:50:14.417Z,96889.72
2022-10-21T02:52:18.464Z,96888.88
2022-10-21T02:54:21.284Z,96879.97
2022-10-21T02:56:23.883Z,96877.63
2022-10-21T02:58:27.241Z,96882.13
2022-10-21T03:00:32.744Z,96875.19
2022-10-21T03:02:35.900Z,96877.06
2022-10-21T03:04:38.465Z,96873.69
2022-10-21T03:06:41.032Z,96869.38
2022-10-21T03:08:45.032Z,96868.44
2022-10-21T03:10:52.985Z,96871.91
2022-10-21T03:12:56.230Z,96865.81
2022-10-21T03:14:58.825Z,96865.81
2022-10-21T03:17:01.400Z,96850.00
2022-10-21T03:19:04.006Z,96851.59
2022-10-21T03:21:08.967Z,96859.47
2022-10-21T03:23:11.690Z,96852.34
2022-10-21T03:25:15.660Z,96847.94
2022-10-21T03:27:18.339Z,96847.84
2022-10-21T03:29:20.943Z,96853.00
2022-10-21T03:31:26.712Z,96856.56
2022-10-21T03:33:29.264Z,96843.34
2022-10-21T03:35:31.904Z,96848.59
2022-10-21T03:37:34.509Z,96848.59
2022-10-21T03:39:37.110Z,96838.09
2022-10-21T03:41:41.341Z,96827.59
2022-10-21T03:43:43.911Z,96823.31
2022-10-21T03:45:47.910Z,96826.69
2022-10-21T03:47:50.499Z,96824.97
2022-10-21T03:49:53.120Z,96825.84
2022-10-21T03:51:55.682Z,96830.97
2022-10-21T03:53:58.241Z,96823.22
2022-10-21T03:56:00.777Z,96814.59
2022-10-21T03:58:04.773Z,96807.56
2022-10-21T04:00:08.778Z,96808.47
2022-10-21T04:02:11.394Z,96798.00
2022-10-21T04:04:14.026Z,96793.59
2022-10-21T04:06:16.596Z,96789.22
2022-10-21T04:08:19.191Z,96790.69
2022-10-21T04:10:21.931Z,96783.09
2022-10-21T04:12:24.776Z,96786.59
2022-10-21T04:14:28.683Z,96784.81
2022-10-21T04:16:33.329Z,96789.22
2022-10-21T04:18:35.964Z,96783.09
2022-10-21T04:20:38.574Z,96792.75
2022-10-21T04:22:41.443Z,96787.59
2022-10-21T04:24:44.136Z,96787.59
2022-10-21T04:26:46.712Z,96789.22
2022-10-21T04:28:49.266Z,96798.75
2022-10-21T04:30:53.683Z,96790.88
2022-10-21T04:32:56.244Z,96792.59
2022-10-21T04:34:58.855Z,96796.88
2022-10-21T04:37:04.200Z,96795.00
2022-10-21T04:39:08.035Z,96795.00
2022-10-21T04:41:10.596Z,96790.53
2022-10-21T04:43:13.155Z,96798.50
2022-10-21T04:45:16.120Z,96784.41
2022-10-21T04:47:20.113Z,96796.78
2022-10-21T04:49:22.791Z,96793.13
2022-10-21T04:51:25.538Z,96787.91
2022-10-21T04:53:28.153Z,96787.03
2022-10-21T04:55:30.809Z,96784.41
2022-10-21T04:57:33.441Z,96777.50
2022-10-21T04:59:36.089Z,96789.75
2022-10-21T05:01:38.687Z,96792.38
2022-10-21T05:03:42.650Z,96792.38
2022-10-21T05:05:45.220Z,96795.09
2022-10-21T05:07:47.825Z,96793.31
2022-10-21T05:09:50.380Z,96792.50
2022-10-21T05:11:52.924Z,96789.88
2022-10-21T05:13:55.527Z,96790.69
2022-10-21T05:16:02.026Z,96791.63
2022-10-21T05:18:04.850Z,96789.00
2022-10-21T05:20:10.132Z,96785.44
2022-10-21T05:22:12.815Z,96796.03
2022-10-21T05:24:15.412Z,96794.25
2022-10-21T05:26:18.018Z,96798.66
2022-10-21T05:28:21.209Z,96789.88
2022-10-21T05:30:23.792Z,96794.25
2022-10-21T05:32:26.715Z,96789.88
2022-10-21T05:34:29.307Z,96778.63
2022-10-21T05:36:33.261Z,96772.53
2022-10-21T05:38:36.413Z,96761.28
2022-10-21T05:40:41.155Z,96768.03
2022-10-21T05:42:43.675Z,96759.22
2022-10-21T05:44:46.303Z,96753.25
2022-10-21T05:46:48.907Z,96761.22
2022-10-21T05:48:51.465Z,96754.72
2022-10-21T05:50:55.555Z,96747.50
2022-10-21T05:52:59.496Z,96750.78
2022-10-21T05:55:02.069Z,96739.47
2022-10-21T05:57:04.743Z,96754.72
2022-10-21T05:59:10.043Z,96738.81
2022-10-21T06:01:13.053Z,96746.47
2022-10-21T06:03:15.649Z,96744.72
2022-10-21T06:05:18.508Z,96738.41
2022-10-21T06:07:21.088Z,96739.28
2022-10-21T06:09:25.186Z,96732.97
2022-10-21T06:11:27.833Z,96748.66
2022-10-21T06:13:30.648Z,96752.09
2022-10-21T06:15:33.276Z,96749.47
2022-10-21T06:17:36.118Z,96756.31
2022-10-21T06:19:38.871Z,96743.94
2022-10-21T06:21:41.432Z,96744.78
2022-10-21T06:23:44.113Z,96750.88
2022-10-21T06:25:57.229Z,96752.63
2022-10-21T06:27:59.769Z,96756.97
2022-10-21T06:30:02.460Z,96745.53
2022-10-21T06:32:05.383Z,96746.47
2022-10-21T06:34:08.117Z,96758.53
2022-10-21T06:36:11.028Z,96749.84
2022-10-21T06:38:13.761Z,96768.94
2022-10-21T06:40:16.359Z,96769.78
2022-10-21T06:42:20.494Z,96775.88
2022-10-21T06:44:23.069Z,96774.94
2022-10-21T06:46:26.130Z,96768.78
2022-10-21T06:48:28.824Z,96775.69
2022-10-21T06:50:31.639Z,96775.69
2022-10-21T06:52:34.330Z,96793.13
2022-10-21T06:54:36.934Z,96803.53
2022-10-21T06:56:40.303Z,96817.47
2022-10-21T06:58:46.453Z,96821.81
2022-10-21T07:00:49.053Z,96822.56
2022-10-21T07:02:51.643Z,96826.00
2022-10-21T07:04:54.206Z,96816.34
2022-10-21T07:06:56.875Z,96800.41
2022-10-21T07:08:59.723Z,96789.81
2022-10-21T07:11:02.975Z,96799.50
2022-10-21T07:13:05.609Z,96806.41
2022-10-21T07:15:10.392Z,96808.16
2022-10-21T07:17:12.977Z,96806.25
2022-10-21T07:19:15.684Z,96805.22
2022-10-21T07:21:20.060Z,96791.16
2022-10-21T07:23:23.020Z,96796.28
2022-10-21T07:25:25.560Z,96795.28
2022-10-21T07:27:28.160Z,96791.63
2022-10-21T07:29:30.738Z,96788.03
2022-10-21T07:31:37.633Z,96789.72
2022-10-21T07:33:40.217Z,96783.34
2022-10-21T07:35:42.823Z,96777.06
2022-10-21T07:37:45.371Z,96789.69
2022-10-21T07:39:48.018Z,96791.19
2022-10-21T07:41:53.423Z,96804.75
2022-10-21T07:43:56.210Z,96821.41
2022-10-21T07:46:05.993Z,96819.53
2022-10-21T07:48:11.517Z,96816.84
2022-10-21T07:50:14.912Z,96818.88
2022-10-21T07:52:17.489Z,96826.13
2022-10-21T07:54:20.883Z,96838.47
2022-10-21T07:56:25.648Z,96828.06
2022-10-21T07:58:28.214Z,96810.72
2022-10-21T08:00:30.782Z,96802.19
2022-10-21T08:02:33.620Z,96778.44
2022-10-21T08:04:37.579Z,96754.91
2022-10-21T08:06:40.439Z,96740.28
2022-10-21T08:08:43.248Z,96734.28
2022-10-21T08:10:46.084Z,96727.38
2022-10-21T08:12:48.774Z,96721.16
2022-10-21T08:14:51.416Z,96720.34
2022-10-21T08:16:54.356Z,96724.75
2022-10-21T08:18:57.136Z,96735.25
2022-10-21T08:21:03.745Z,96737.88
2022-10-21T08:23:06.642Z,96733.53
2022-10-21T08:25:11.689Z,96720.41
2022-10-21T08:27:14.426Z,96727.69
2022-10-21T08:29:17.028Z,96735.56
2022-10-21T08:31:21.551Z,96726.84
2022-10-21T08:33:24.176Z,96719.91
2022-10-21T08:35:26.820Z,96703.31
2022-10-21T08:37:32.036Z,96718.03
2022-10-21T08:39:35.413Z,96735.78
2022-10-21T08:41:58.949Z,96738.50
2022-10-21T08:44:06.079Z,96722.00
2022-10-21T08:46:12.786Z,96722.00
2022-10-21T08:48:19.824Z,96737.66
2022-10-21T08:50:25.859Z,96734.19
2022-10-21T08:52:39.493Z,96731.66
2022-10-21T08:54:47.765Z,96766.66
2022-10-21T08:56:56.389Z,96767.50
2022-10-21T08:58:59.283Z,96784.19
2022-10-21T09:01:05.873Z,96796.53
2022-10-21T09:03:19.324Z,96819.34
2022-10-21T09:05:39.931Z,96821.50
2022-10-21T09:07:53.639Z,96846.22
2022-10-21T09:10:00.013Z,96849.22
2022-10-21T09:12:12.749Z,96868.06
2022-10-21T09:14:40.021Z,96852.19
2022-10-21T09:16:50.442Z,96864.59
2022-10-21T09:19:06.941Z,96870.75
2022-10-21T09:21:18.811Z,96863.88
2022-10-21T09:23:45.752Z,96871.13
2022-10-21T09:25:53.364Z,96872.38
2022-10-21T09:27:57.581Z,96855.78
2022-10-21T09:30:02.991Z,96861.97
2022-10-21T09:32:15.618Z,96855.25
2022-10-21T09:34:23.582Z,96850.97
2022-10-21T09:36:35.159Z,96858.53
2022-10-21T09:38:44.471Z,96856.84
2022-10-21T09:40:49.351Z,96865.59
2022-10-21T09:42:55.860Z,96862.56
2022-10-21T09:44:58.595Z,96849.19
2022-10-21T09:47:01.221Z,96854.06
2022-10-21T09:49:36.714Z,96847.47
2022-10-21T09:51:30.916Z,96848.38
2022-10-21T09:53:38.397Z,96850.91
2022-10-21T09:55:45.177Z,96850.56
2022-10-21T09:57:54.901Z,96845.50
2022-10-21T10:00:01.079Z,96850.28
2022-10-21T10:02:08.117Z,96856.56
2022-10-21T10:04:12.361Z,96861.19
2022-10-21T10:06:30.464Z,96863.50
2022-10-21T10:08:37.608Z,96863.31
2022-10-21T10:10:40.305Z,96858.16
2022-10-21T10:12:56.946Z,96873.72
2022-10-21T10:15:26.937Z,96886.88
2022-10-21T10:17:35.573Z,96884.06
2022-10-21T10:19:38.194Z,96876.88
2022-10-21T10:21:40.789Z,96891.72
2022-10-21T10:23:45.838Z,96891.09
2022-10-21T10:25:53.299Z,96895.28
2022-10-21T10:27:59.611Z,96901.63
2022-10-21T10:30:02.914Z,96894.56
2022-10-21T10:32:13.830Z,96909.72
2022-10-21T10:34:25.063Z,96911.22
2022-10-21T10:36:32.017Z,96910.28
2022-10-21T10:38:36.884Z,96911.22
2022-10-21T10:40:43.495Z,96909.22
2022-10-21T10:42:46.877Z,96902.47
2022-10-21T10:44:54.654Z,96908.88
2022-10-21T10:46:59.296Z,96911.53
2022-10-21T10:49:07.699Z,96913.22
2022-10-21T10:51:26.064Z,96909.53
2022-10-21T10:53:31.990Z,96903.72
2022-10-21T10:55:35.232Z,96908.78
2022-10-21T10:57:44.589Z,96909.94
2022-10-21T11:00:07.120Z,96908.78
2022-10-21T11:02:23.247Z,96909.00
2022-10-21T11:04:33.469Z,96905.63
2022-10-21T11:06:43.363Z,96908.59
2022-10-21T11:08:51.240Z,96902.38
2022-10-21T11:10:58.197Z,96901.63
2022-10-21T11:13:02.209Z,96907.84
2022-10-21T11:15:14.628Z,96907.94
2022-10-21T11:17:20.268Z,96915.94
2022-10-21T11:19:30.108Z,96909.66
2022-10-21T11:21:43.970Z,96907.88
2022-10-21T11:24:07.615Z,96912.69
2022-10-21T11:26:20.608Z,96910.06
2022-10-21T11:28:29.723Z,96911.75
2022-10-21T11:30:44.250Z,96919.84
2022-10-21T11:33:00.040Z,96917.41
2022-10-21T11:35:17.724Z,96920.56
2022-10-21T11:37:28.860Z,96919.31
2022-10-21T11:39:40.553Z,96902.03
2022-10-21T11:41:45.659Z,96906.28
2022-10-21T11:43:56.832Z,96909.03
2022-10-21T11:46:05.924Z,96907.88
2022-10-21T11:48:21.025Z,96900.69
2022-10-21T11:50:30.535Z,96898.28
2022-10-21T11:52:42.471Z,96901.44
2022-10-21T11:55:09.846Z,96900.47
2022-10-21T11:57:18.080Z,96903.75
2022-10-21T11:59:36.645Z,96906.06
2022-10-21T12:01:48.644Z,96905.22
2022-10-21T12:04:11.476Z,96908.91
2022-10-21T12:06:27.447Z,96907.09
2022-10-21T12:08:39.695Z,96899.31
2022-10-21T12:10:50.624Z,96904.47
2022-10-21T12:12:57.403Z,96901.09
2022-10-21T12:15:02.477Z,96901.19
2022-10-21T12:17:11.622Z,96903.50
2022-10-21T12:19:15.227Z,96908.81
2022-10-21T12:21:24.386Z,96908.78
2022-10-21T12:23:30.360Z,96918.06
2022-10-21T12:25:43.508Z,96918.38
2022-10-21T12:27:55.241Z,96921.28
2022-10-21T12:30:02.213Z,96908.88
2022-10-21T12:32:19.623Z,96916.16
2022-10-21T12:34:23.292Z,96920.69
2022-10-21T12:36:42.237Z,96929.22
2022-10-21T12:38:47.968Z,96921.09
2022-10-21T12:40:51.575Z,96920.91
2022-10-21T12:43:00.446Z,96925.03
2022-10-21T12:45:03.577Z,96923.13
2022-10-21T12:47:25.906Z,96919.53
2022-10-21T12:49:32.445Z,96915.53
2022-10-21T12:51:36.655Z,96915.53
2022-10-21T12:53:42.466Z,96914.81
2022-10-21T12:55:51.033Z,96915.41
2022-10-21T12:58:01.388Z,96912.66
2022-10-21T13:00:41.425Z,96902.03
2022-10-21T13:03:03.637Z,96898.19
2022-10-21T13:05:06.756Z,96906.97
2022-10-21T13:07:30.047Z,96910.28
2022-10-21T13:09:35.501Z,96915.44
2022-10-21T13:11:40.038Z,96922.91
2022-10-21T13:13:43.617Z,96913.19
2022-10-21T13:15:48.260Z,96919.34
2022-10-21T13:17:53.351Z,96913.84
2022-10-21T13:20:18.570Z,96917.09
2022-10-21T13:22:23.593Z,96913.63
2022-10-21T13:24:27.991Z,96918.69
2022-10-21T13:26:31.068Z,96917.63
2022-10-21T13:28:34.929Z,96917.84
2022-10-21T13:30:38.994Z,96919.84
2022-10-21T13:32:42.623Z,96926.38
2022-10-21T13:34:58.718Z,96920.28
2022-10-21T13:37:01.397Z,96928.28
2022-10-21T13:39:09.495Z,96931.56
2022-10-21T13:41:22.749Z,96935.44
2022-10-21T13:43:28.821Z,96940.38
2022-10-21T13:45:35.763Z,96935.84
2022-10-21T13:47:38.701Z,96937.44
2022-10-21T13:49:43.087Z,96939.97
2022-10-21T13:51:47.856Z,96933.84
2022-10-21T13:53:53.953Z,96939.16
2022-10-21T13:55:58.932Z,96945.44
2022-10-21T13:58:01.490Z,96929.13
2022-10-21T14:00:08.065Z,96937.75
2022-10-21T14:02:24.179Z,96929.22
2022-10-21T14:04:28.555Z,96929.44
2022-10-21T14:06:36.186Z,96923.34
2022-10-21T14:08:43.361Z,96918.78
2022-10-21T14:10:48.333Z,96910.25
2022-10-21T14:12:51.747Z,96907.31
2022-10-21T14:14:56.875Z,96908.28
2022-10-21T14:17:02.767Z,96901.22
2022-10-21T14:19:09.232Z,96893.00
2022-10-21T14:21:18.668Z,96889.53
2022-10-21T14:23:24.208Z,96892.78
2022-10-21T14:25:28.579Z,96883.44
2022-10-21T14:27:33.163Z,96882.06
2022-10-21T14:29:37.047Z,96878.78
2022-10-21T14:31:42.988Z,96865.75
2022-10-21T14:33:49.646Z,96872.78
2022-10-21T14:36:10.671Z,96886.16
2022-10-21T14:38:26.523Z,96880.59
2022-10-21T14:40:34.062Z,96880.47
2022-10-21T14:42:36.971Z,96887.41
2022-10-21T14:44:42.598Z,96885.63
2022-10-21T14:46:47.600Z,96886.75
2022-10-21T14:48:54.024Z,96884.97
2022-10-21T14:51:01.267Z,96880.56
2022-10-21T14:53:04.330Z,96887.59
2022-10-21T14:55:10.588Z,96885.19
2022-10-21T14:57:30.688Z,96882.66
2022-10-21T14:59:40.208Z,96885.59
2022-10-21T15:01:43.941Z,96889.19
2022-10-21T15:03:48.505Z,96881.81
2022-10-21T15:05:51.206Z,96886.34
2022-10-21T15:08:32.396Z,96877.50
2022-10-21T15:10:35.256Z,96882.25
2022-10-21T15:12:44.567Z,96883.91
2022-10-21T15:14:47.163Z,96883.06
2022-10-21T15:16:53.468Z,96873.41
2022-10-21T15:18:56.277Z,96876.03
2022-10-21T15:21:02.280Z,96881.19
2022-10-21T15:23:05.174Z,96880.31
2022-10-21T15:25:10.076Z,96880.53
2022-10-21T15:27:18.657Z,96880.44
2022-10-21T15:29:29.400Z,96867.38
2022-10-21T15:31:32.037Z,96865.81
2022-10-21T15:33:34.585Z,96861.19
2022-10-21T15:35:37.117Z,96870.44
2022-10-21T15:37:39.847Z,96875.81
2022-10-21T15:39:45.321Z,96867.06
2022-10-21T15:41:53.592Z,96875.06
2022-10-21T15:44:00.629Z,96875.28
2022-10-21T15:46:04.618Z,96879.78
2022-10-21T15:48:10.347Z,96887.50
2022-10-21T15:50:16.436Z,96883.38
2022-10-21T15:52:19.117Z,96873.91
2022-10-21T15:54:22.130Z,96869.69
2022-10-21T15:56:24.774Z,96856.56
2022-10-21T15:58:27.560Z,96860.22
2022-10-21T16:00:30.152Z,96852.41
2022-10-21T16:02:39.365Z,96863.03
2022-10-21T16:04:42.892Z,96858.91
2022-10-21T16:06:48.086Z,96847.47
2022-10-21T16:08:53.049Z,96845.56
2022-10-21T16:10:55.837Z,96845.75
2022-10-21T16:12:59.324Z,96844.19
2022-10-21T16:15:01.880Z,96855.72
2022-10-21T16:17:04.619Z,96863.84
2022-10-21T16:19:09.906Z,96867.69
2022-10-21T16:21:13.443Z,96865.72
2022-10-21T16:23:16.072Z,96853.84
2022-10-21T16:25:19.585Z,96857.63
2022-10-21T16:27:31.345Z,96853.53
2022-10-21T16:29:40.050Z,96855.41
2022-10-21T16:31:42.700Z,96865.28
2022-10-21T16:33:46.080Z,96875.34
2022-10-21T16:35:49.987Z,96867.56
2022-10-21T16:37:53.149Z,96876.38
2022-10-21T16:39:55.756Z,96879.56
2022-10-21T16:41:58.275Z,96867.91
2022-10-21T16:44:01.001Z,96868.13
2022-10-21T16:46:03.620Z,96874.19
2022-10-21T16:48:06.477Z,96870.13
2022-10-21T16:50:18.436Z,96865.28
2022-10-21T16:52:22.482Z,96866.50
2022-10-21T16:54:25.067Z,96865.66
2022-10-21T16:58:35.842Z,96863.78
2022-10-21T17:00:38.586Z,96864.63
2022-10-21T17:02:41.328Z,96877.13
2022-10-21T17:04:44.016Z,96870.38
2022-10-21T17:06:46.559Z,96868.72
2022-10-21T17:08:52.215Z,96866.28
2022-10-21T17:10:54.852Z,96860.28
2022-10-21T17:12:59.153Z,96863.13
2022-10-21T17:15:02.484Z,96871.53
2022-10-21T17:17:05.063Z,96872.66
2022-10-21T17:19:08.356Z,96878.97
2022-10-21T17:21:20.314Z,96875.59
2022-10-21T17:23:25.129Z,96865.91
2022-10-21T17:25:30.519Z,96867.81
2022-10-21T17:27:33.064Z,96861.81
2022-10-21T17:29:36.101Z,96863.81
2022-10-21T17:31:40.377Z,96873.56
2022-10-21T17:33:43.445Z,96869.34
2022-10-21T17:35:46.023Z,96872.81
2022-10-21T17:37:49.704Z,96873.66
2022-10-21T17:39:52.290Z,96877.16
2022-10-21T17:41:56.461Z,96870.09
2022-10-21T17:44:01.704Z,96870.94
2022-10-21T17:46:04.515Z,96869.16
2022-10-21T17:48:07.524Z,96867.47
2022-10-21T17:50:11.430Z,96862.09
2022-10-21T17:52:14.012Z,96851.69
2022-10-21T17:54:17.102Z,96856.03
2022-10-21T17:56:20.453Z,96854.22
2022-10-21T17:58:24.458Z,96851.59
2022-10-21T18:00:27.043Z,96853.28
2022-10-21T18:02:33.308Z,96848.03
2022-10-21T18:04:35.892Z,96850.56
2022-10-21T18:06:39.776Z,96854.03
2022-10-21T18:08:43.458Z,96845.31
2022-10-21T18:10:53.009Z,96836.69
2022-10-21T18:12:55.563Z,96841.19
2022-10-21T18:14:59.542Z,96841.28
2022-10-21T18:17:02.114Z,96832.66
2022-10-21T18:19:04.725Z,96824.88
2022-10-21T18:21:10.185Z,96833.72
2022-10-21T18:23:13.395Z,96839.88
2022-10-21T18:25:16.462Z,96844.44
2022-10-21T18:27:19.124Z,96841.88
2022-10-21T18:29:22.184Z,96841.81
2022-10-21T18:31:28.126Z,96831.38
2022-10-21T18:33:30.966Z,96836.63
2022-10-21T18:35:33.533Z,96828.66
2022-10-21T18:37:36.392Z,96817.31
2022-10-21T18:39:38.991Z,96820.97
2022-10-21T18:41:42.045Z,96821.16
2022-10-21T18:43:48.044Z,96830.91
2022-10-21T18:45:50.599Z,96830.16
2022-10-21T18:47:55.559Z,96829.34
2022-10-21T18:49:58.125Z,96830.16
2022-10-21T18:52:00.688Z,96822.28
2022-10-21T18:54:03.284Z,96828.28
2022-10-21T18:56:06.745Z,96827.16
2022-10-21T18:58:09.345Z,96827.81
2022-10-21T19:00:12.437Z,96833.72
2022-10-21T19:02:21.128Z,96832.97
2022-10-21T19:04:25.491Z,96829.22
2022-10-21T19:06:36.735Z,96838.56
2022-10-21T19:08:39.556Z,96830.69
2022-10-21T19:10:43.031Z,96829.00
2022-10-21T19:12:45.675Z,96831.72
2022-10-21T19:14:48.214Z,96832.66
2022-10-21T19:16:50.856Z,96829.09
2022-10-21T19:18:54.729Z,96832.47
2022-10-21T19:20:58.785Z,96840.53
2022-10-21T19:23:01.434Z,96839.09
2022-10-21T19:25:04.254Z,96839.31
2022-10-21T19:27:06.833Z,96842.03
2022-10-21T19:29:13.209Z,96844.13
2022-10-21T19:31:16.878Z,96844.97
2022-10-21T19:33:19.451Z,96846.00
2022-10-21T19:35:21.994Z,96844.50
2022-10-21T19:37:25.910Z,96841.97
2022-10-21T19:39:28.572Z,96845.56
2022-10-21T19:41:31.143Z,96841.22
2022-10-21T19:43:33.787Z,96836.72
2022-10-21T19:45:37.141Z,96837.56
2022-10-21T19:47:39.678Z,96833.34
2022-10-21T19:49:42.280Z,96835.97
2022-10-21T19:51:45.002Z,96842.19
2022-10-21T19:53:50.123Z,96862.34
2022-10-21T19:55:52.731Z,96868.34
2022-10-21T19:57:55.272Z,96868.13
2022-10-21T19:59:57.869Z,96865.56
2022-10-21T20:02:00.427Z,96855.63
2022-10-21T20:04:04.173Z,96856.75
2022-10-21T20:06:09.683Z,96862.94
2022-10-21T20:08:12.245Z,96862.84
2022-10-21T20:10:18.327Z,96867.56
2022-10-21T20:12:20.976Z,96880.78
2022-10-21T20:14:23.520Z,96879.13
2022-10-21T20:16:28.364Z,96879.19
2022-10-21T20:18:31.652Z,96876.94
2022-10-21T20:20:34.221Z,96882.94
2022-10-21T20:22:36.810Z,96882.28
2022-10-21T20:24:42.076Z,96888.19
2022-10-21T20:26:51.335Z,96896.25
2022-10-21T20:28:53.911Z,96893.16
2022-10-21T20:30:57.987Z,96892.81
2022-10-21T20:33:00.569Z,96892.97
2022-10-21T20:35:03.244Z,96891.31
2022-10-21T20:37:05.835Z,96900.16
2022-10-21T20:39:10.241Z,96891.13
2022-10-21T20:41:15.401Z,96894.41
2022-10-21T20:43:19.334Z,96884.09
2022-10-21T20:45:21.922Z,96889.44
2022-10-21T20:47:26.428Z,96900.06
2022-10-21T20:49:31.530Z,96899.69
2022-10-21T20:51:34.956Z,96905.97
2022-10-21T20:53:40.034Z,96909.72
2022-10-21T20:55:43.728Z,96919.41
2022-10-21T20:57:46.411Z,96917.69
2022-10-21T20:59:50.379Z,96926.72
2022-10-21T21:01:53.052Z,96926.72
2022-10-21T21:03:57.329Z,96932.78
2022-10-21T21:06:02.138Z,96929.72
2022-10-21T21:08:05.000Z,96924.00
2022-10-21T21:10:08.523Z,96916.03
2022-10-21T21:12:11.135Z,96930.66
2022-10-21T21:14:13.761Z,96923.03
2022-10-21T21:16:20.359Z,96927.09
2022-10-21T21:18:22.934Z,96942.72
2022-10-21T21:20:25.521Z,96945.66
2022-10-21T21:22:30.975Z,96955.84
2022-10-21T21:24:33.836Z,96948.09
2022-10-21T21:26:38.465Z,96952.47
2022-10-21T21:28:41.809Z,96946.22
2022-10-21T21:30:52.109Z,96954.38
2022-10-21T21:32:56.050Z,96945.25
2022-10-21T21:35:02.216Z,96950.34
2022-10-21T21:37:07.661Z,96952.13
2022-10-21T21:39:11.483Z,96952.97
2022-10-21T21:41:16.474Z,96951.66
2022-10-21T21:43:19.168Z,96943.69
2022-10-21T21:45:21.755Z,96954.28
2022-10-21T21:47:24.339Z,96957.81
2022-10-21T21:49:28.279Z,96976.88
2022-10-21T21:51:31.507Z,96972.09
2022-10-21T21:53:34.172Z,96977.69
2022-10-21T21:55:36.912Z,96975.38
2022-10-21T21:57:39.482Z,96975.53
2022-10-21T21:59:42.105Z,96973.31
2022-10-21T22:01:44.720Z,96969.84
2022-10-21T22:03:49.142Z,96975.00
2022-10-21T22:05:53.052Z,96985.13
2022-10-21T22:07:55.641Z,96982.03
2022-10-21T22:09:58.200Z,96985.13
2022-10-21T22:12:00.786Z,96989.44
2022-10-21T22:14:03.554Z,96984.19
2022-10-21T22:16:06.768Z,96984.66
2022-10-21T22:18:10.186Z,96984.47
2022-10-21T22:20:13.405Z,96978.75
2022-10-21T22:22:17.658Z,96977.81
2022-10-21T22:24:20.288Z,96982.56
2022-10-21T22:26:26.470Z,96981.56
2022-10-21T22:28:32.096Z,96984.84
2022-10-21T22:30:34.632Z,96981.47
2022-10-21T22:32:37.676Z,96986.06
2022-10-21T22:34:40.316Z,96982.13
2022-10-21T22:36:42.952Z,96978.91
2022-10-21T22:38:46.884Z,96977.41
2022-10-21T22:40:53.811Z,96978.63
2022-10-21T22:42:56.370Z,96978.25
2022-10-21T22:44:58.978Z,96992.16
2022-10-21T22:47:01.557Z,96996.81
2022-10-21T22:49:04.966Z,97002.59
2022-10-21T22:51:07.661Z,97003.34
2022-10-21T22:53:10.483Z,96998.00
2022-10-21T22:55:14.562Z,96995.00
2022-10-21T22:57:17.363Z,96998.38
2022-10-21T22:59:19.935Z,97000.13
2022-10-21T23:01:28.961Z,97010.63
2022-10-21T23:03:31.716Z,97015.53
2022-10-21T23:05:34.341Z,97020.28
2022-10-21T23:07:36.905Z,97014.25
2022-10-21T23:09:39.516Z,97027.25
2022-10-21T23:11:43.519Z,97018.63
2022-10-21T23:13:56.337Z,97024.63
2022-10-21T23:16:06.972Z,97025.34
2022-10-21T23:18:09.859Z,97023.97
2022-10-21T23:20:13.022Z,97029.59
2022-10-21T23:22:15.642Z,97033.88
2022-10-21T23:24:18.242Z,97037.56
2022-10-21T23:26:22.295Z,97041.28
2022-10-21T23:28:26.350Z,97048.25
2022-10-21T23:30:29.101Z,97044.19
2022-10-21T23:32:31.695Z,97050.81
2022-10-21T23:34:34.294Z,97046.56
2022-10-21T23:36:37.204Z,97047.72
2022-10-21T23:38:39.775Z,97045.00
2022-10-21T23:40:42.517Z,97046.22
2022-10-21T23:42:45.121Z,97042.47
2022-10-21T23:44:49.028Z,97041.03
2022-10-21T23:46:51.629Z,97043.75
2022-10-21T23:48:54.268Z,97039.59
2022-10-21T23:50:57.169Z,97048.31
2022-10-21T23:52:59.770Z,97050.56
2022-10-21T23:55:02.372Z,97049.91
2022-10-21T23:57:05.191Z,97055.47
2022-10-21T23:59:07.814Z,97054.81
